createdAt,value
2023-05-19T00:05:39.923Z,45.6
2023-05-19T00:11:15.975Z,45.5
2023-05-19T00:17:08.040Z,45.4
2023-05-19T00:23:00.794Z,45.4
2023-05-19T00:28:52.244Z,45.4
2023-05-19T00:34:44.294Z,45.3
2023-05-19T00:40:36.392Z,45.3
2023-05-19T00:46:12.151Z,45.2
2023-05-19T00:51:49.132Z,45.2
2023-05-19T00:57:26.226Z,45.1
2023-05-19T01:03:02.846Z,45.1
2023-05-19T01:08:55.472Z,45
2023-05-19T01:14:31.831Z,45
2023-05-19T01:20:24.114Z,44.9
2023-05-19T01:26:15.056Z,44.3
2023-05-19T01:31:51.962Z,43.6
2023-05-19T01:37:12.600Z,44.3
2023-05-19T01:42:48.805Z,45.4
2023-05-19T01:48:27.701Z,46.5
2023-05-19T01:54:03.033Z,47.6
2023-05-19T01:59:54.716Z,48.7
2023-05-19T02:05:31.511Z,49.6
2023-05-19T02:11:07.182Z,50.6
2023-05-19T02:16:58.998Z,51.8
2023-05-19T02:22:51.090Z,53
2023-05-19T02:28:27.093Z,54.1
2023-05-19T02:34:03.899Z,54.8
2023-05-19T02:39:40.278Z,54.9
2023-05-19T02:45:16.094Z,54.9
2023-05-19T02:50:52.773Z,54.9
2023-05-19T02:56:14.214Z,54.9
2023-05-19T03:02:06.121Z,54.9
2023-05-19T03:07:43.299Z,54.9
2023-05-19T03:13:35.152Z,54.9
2023-05-19T03:19:11.429Z,54.8
2023-05-19T03:25:03.232Z,54.8
2023-05-19T03:30:56.053Z,54.8
2023-05-19T03:36:47.829Z,54.8
2023-05-19T03:42:39.458Z,54.7
2023-05-19T03:48:31.938Z,54.7
2023-05-19T03:54:22.479Z,54.6
2023-05-19T03:59:59.105Z,54.6
2023-05-19T04:05:51.828Z,54.6
2023-05-19T04:11:42.798Z,54.6
2023-05-19T04:17:34.501Z,54.5
2023-05-19T04:23:26.788Z,54.5
2023-05-19T04:29:17.282Z,54.4
2023-05-19T04:35:09.704Z,54.4
2023-05-19T04:40:49.521Z,54.4
2023-05-19T04:46:41.102Z,54.4
2023-05-19T04:52:35.390Z,54.3
2023-05-19T04:58:26.510Z,54.3
2023-05-19T05:04:02.846Z,54.3
2023-05-19T05:09:54.656Z,54.2
2023-05-19T05:15:46.186Z,54.1
2023-05-19T05:21:38.305Z,54.1
2023-05-19T05:27:14.801Z,54.1
2023-05-19T05:32:36.079Z,54.1
2023-05-19T05:38:28.273Z,54.1
2023-05-19T05:44:06.233Z,54
2023-05-19T05:49:58.898Z,54
2023-05-19T05:55:46.786Z,53.9
2023-05-19T06:01:22.836Z,53.9
2023-05-19T06:07:00.300Z,53.8
2023-05-19T06:12:52.513Z,53.8
2023-05-19T06:18:29.630Z,53.8
2023-05-19T06:24:06.704Z,53.8
2023-05-19T06:29:43.745Z,53.7
2023-05-19T06:35:39.876Z,53.7
2023-05-19T06:41:16.998Z,53.6
2023-05-19T06:46:55.197Z,53.6
2023-05-19T06:52:32.172Z,53.6
2023-05-19T06:58:17.306Z,53.6
2023-05-19T07:04:09.984Z,53.5
2023-05-19T07:09:50.687Z,53.5
2023-05-19T07:15:27.357Z,53.4
2023-05-19T07:20:32.640Z,53.4
2023-05-19T07:25:53.225Z,53.4
2023-05-19T07:31:32.806Z,53.3
2023-05-19T07:37:09.384Z,53.3
2023-05-19T07:42:31.074Z,53.3
2023-05-19T07:47:53.187Z,53.4
2023-05-19T07:53:31.475Z,53.5
2023-05-19T07:58:37.164Z,53.7
2023-05-19T08:04:15.240Z,53.9
2023-05-19T08:09:50.218Z,54.3
2023-05-19T08:15:26.596Z,54.5
2023-05-19T08:21:04.300Z,54.8
2023-05-19T08:26:39.175Z,55.1
2023-05-19T08:32:14.747Z,55.4
2023-05-19T08:37:36.503Z,55.8
2023-05-19T08:43:11.974Z,56.1
2023-05-19T08:48:33.236Z,56.4
2023-05-19T08:54:26.780Z,56.7
2023-05-19T09:00:05.367Z,57.1
2023-05-19T09:06:00.429Z,57.6
2023-05-19T09:11:37.300Z,57.9
2023-05-19T09:17:16.883Z,58.2
2023-05-19T09:22:53.445Z,58.5
2023-05-19T09:28:30.475Z,58.9
2023-05-19T09:34:06.668Z,59.3
2023-05-19T09:39:42.797Z,59.5
2023-05-19T09:45:34.844Z,59.9
2023-05-19T09:51:11.488Z,60.2
2023-05-19T09:56:33.159Z,60.3
2023-05-19T10:02:28.851Z,60.5
2023-05-19T10:08:06.706Z,60.6
2023-05-19T10:13:57.849Z,60.6
2023-05-19T10:19:36.367Z,60.6
2023-05-19T10:25:12.845Z,60.6
2023-05-19T10:31:06.085Z,60.6
2023-05-19T10:36:43.208Z,60.8
2023-05-19T10:42:20.716Z,60.8
2023-05-19T10:48:12.310Z,60.8
2023-05-19T10:54:04.950Z,60.8
2023-05-19T10:59:43.687Z,60.8
2023-05-19T11:05:41.633Z,60.8
2023-05-19T11:11:47.123Z,60.8
2023-05-19T11:17:39.581Z,60.7
2023-05-19T11:23:33.459Z,60.7
2023-05-19T11:29:27.905Z,60.7
2023-05-19T11:35:20.503Z,60.9
2023-05-19T11:41:12.976Z,61
2023-05-19T11:47:05.208Z,61.1
2023-05-19T11:53:16.524Z,61.1
2023-05-19T11:59:25.201Z,61.1
2023-05-19T12:05:18.567Z,61
2023-05-19T12:11:18.019Z,61
2023-05-19T12:17:10.897Z,60.9
2023-05-19T12:22:56.557Z,60.9
2023-05-19T12:28:47.712Z,60.9
2023-05-19T12:34:41.413Z,60.8
2023-05-19T12:40:33.944Z,60.8
2023-05-19T12:46:26.037Z,60.8
2023-05-19T12:52:20.961Z,60.7
2023-05-19T12:58:14.980Z,60.7
2023-05-19T13:04:24.237Z,60.6
2023-05-19T13:10:16.663Z,60.6
2023-05-19T13:16:09.491Z,60.6
2023-05-19T13:22:15.278Z,60.6
2023-05-19T13:27:36.553Z,60.5
2023-05-19T13:33:14.526Z,60.4
2023-05-19T13:39:06.274Z,60.3
2023-05-19T13:44:58.320Z,60.3
2023-05-19T13:51:01.824Z,60.3
2023-05-19T13:56:53.422Z,60.2
2023-05-19T14:02:45.211Z,60.1
2023-05-19T14:08:23.346Z,60.1
2023-05-19T14:14:43.878Z,60
2023-05-19T14:20:38.297Z,59.9
2023-05-19T14:26:31.153Z,59.9
2023-05-19T14:32:09.447Z,59.9
2023-05-19T14:38:05.394Z,59.8
2023-05-19T14:43:42.499Z,59.8
2023-05-19T14:49:20.574Z,59.8
2023-05-19T14:54:59.226Z,59.7
2023-05-19T15:00:48.353Z,59.6
2023-05-19T15:06:27.363Z,59.6
2023-05-19T15:12:23.374Z,59.6
2023-05-19T15:18:34.514Z,59.5
2023-05-19T15:24:26.422Z,59.4
2023-05-19T15:30:01.641Z,59.4
2023-05-19T15:35:39.118Z,59.3
2023-05-19T15:41:30.203Z,59.3
2023-05-19T15:47:22.049Z,59.3
2023-05-19T15:53:14.473Z,59.2
2023-05-19T15:58:50.024Z,59.1
2023-05-19T16:04:28.969Z,59.1
2023-05-19T16:10:21.713Z,59.1
2023-05-19T16:16:12.913Z,59
2023-05-19T16:21:50.369Z,58.9
2023-05-19T16:27:27.448Z,58.9
2023-05-19T16:33:03.314Z,58.9
2023-05-19T16:38:40.215Z,58.8
2023-05-19T16:44:17.885Z,58.8
2023-05-19T16:49:55.484Z,58.7
2023-05-19T16:55:47.603Z,58.7
2023-05-19T17:01:24.890Z,58.6
2023-05-19T17:17:47.880Z,58.5
2023-05-19T17:23:24.205Z,58.4
2023-05-19T17:29:15.359Z,58.4
2023-05-19T17:34:52.609Z,58.4
2023-05-19T17:40:31.480Z,58.3
2023-05-19T17:46:22.287Z,58.3
2023-05-19T17:51:58.826Z,58.3
2023-05-19T17:57:04.178Z,58.2
2023-05-19T18:02:24.316Z,58.1
2023-05-19T18:08:02.492Z,58.1
2023-05-19T18:13:41.956Z,58.1
2023-05-19T18:19:17.953Z,58
2023-05-19T18:24:54.719Z,57.9
2023-05-19T18:30:30.392Z,57.9
2023-05-19T18:35:51.022Z,57.9
2023-05-19T18:41:11.855Z,57.8
2023-05-19T18:46:17.358Z,57.8
2023-05-19T18:56:44.183Z,57.7
2023-05-19T19:01:34.002Z,57.6
2023-05-19T19:06:38.927Z,57.6
2023-05-19T19:12:16.485Z,57.6
2023-05-19T19:17:53.669Z,57.5
2023-05-19T19:23:29.188Z,57.4
2023-05-19T19:29:05.803Z,57.4
2023-05-19T19:34:44.665Z,57.3
2023-05-19T19:40:20.166Z,57.3
2023-05-19T19:45:57.239Z,57.2
2023-05-19T19:51:49.224Z,57.2
2023-05-19T19:57:24.421Z,57.1
2023-05-19T20:03:19.967Z,57.1
2023-05-19T20:08:56.469Z,57.1
2023-05-19T20:14:17.768Z,57
2023-05-19T20:19:56.792Z,56.9
2023-05-19T20:25:33.276Z,56.9
2023-05-19T20:31:31.586Z,56.8
2023-05-19T20:37:09.937Z,56.8
2023-05-19T20:42:29.908Z,56.8
2023-05-19T20:48:06.436Z,56.7
2023-05-19T20:53:43.101Z,56.6
2023-05-19T20:59:18.741Z,56.6
2023-05-19T21:05:10.708Z,56.6
2023-05-19T21:10:47.646Z,56.5
2023-05-19T21:16:23.219Z,56.4
2023-05-19T21:22:14.700Z,56.4
2023-05-19T21:27:51.477Z,56.4
2023-05-19T21:33:42.656Z,56.3
2023-05-19T21:39:29.497Z,56.3
2023-05-19T21:45:23.974Z,56.3
2023-05-19T21:51:00.188Z,56.2
2023-05-19T21:56:51.065Z,56.1
2023-05-19T22:02:43.645Z,56.1
2023-05-19T22:08:35.522Z,56
2023-05-19T22:14:26.074Z,56
2023-05-19T22:20:03.028Z,55.9
2023-05-19T22:26:07.230Z,55.9
2023-05-19T22:32:01.235Z,55.9
2023-05-19T22:37:53.521Z,55.8
2023-05-19T22:43:46.163Z,55.8
2023-05-19T22:49:38.497Z,55.7
2023-05-19T22:55:33.237Z,55.7
2023-05-19T23:01:24.521Z,55.6
2023-05-19T23:07:15.424Z,55.6
2023-05-19T23:13:07.284Z,55.5
2023-05-19T23:18:59.666Z,55.4
2023-05-19T23:24:51.661Z,55.4
2023-05-19T23:30:43.633Z,55.4
2023-05-19T23:36:37.173Z,55.3
2023-05-19T23:42:27.612Z,55.3
2023-05-19T23:48:19.768Z,55.2
2023-05-19T23:54:11.407Z,55.2
